KDNL/DNL METAR and TAF weather

Enter ICAO airport designator
Station Type Date Time Source
KDNL METAR 2022/06/29 01:06 UTC NOAA

KDNL 290106Z AUTO 07005KT 10SM FEW004 SCT013 24/23 A3018 RMK AO2 RAE0055 P0000 T02390228


Station Type Date Time Source
KDNL Decoded METAR 2022/06/29 01:06 UTC NOAA

AUGUSTA DANIEL FIELD, GA, United States (KDNL) 33-28N 82-02W 130M
Jun 28, 2022 - 09:06 PM EDT / 2022.06.29 0106 UTC
Wind: from the ENE (070 degrees) at 6 MPH (5 KT):0
Visibility: 10 mile(s):0
Sky conditions: partly cloudy
Precipitation last hour: A trace
Temperature: 75.0 F (23.9 C)
Dew Point: 73.0 F (22.8 C)
Relative Humidity: 93%
Pressure (altimeter): 30.18 in. Hg (1022 hPa)
ob: KDNL 290106Z AUTO 07005KT 10SM FEW004 SCT013 24/23 A3018 RMK AO2 RAE0055 P0000 T02390228
cycle: 1

Station Type Date Time Source
KDNL TAF 2022/06/28 22:18 UTC NOAA

TAF
AMD KDNL 282215Z 2822/2918 VRB05KT P6SM VCTS BKN040CB
TEMPO 2822/2824 4SM -TSRA BKN035CB
FM290100 VRB05KT P6SM VCSH BKN040
FM290600 VRB03KT P6SM SCT015

Example: see airport list